Time,TemperatureF,DewpointF,PressureIn,WindDirection,WindDirectionDegrees,WindSpeedMPH,WindSpeedGustMPH,Humidity,HourlyPrecipIn,Conditions,Clouds,dailyrainin,SoftwareType,DateUTC
2013-05-15 00:02:00,68.0,67.0,30.13,North,10,0.0,-999.0,96,-99.99,,,-99.99,,2013-05-15 10:02:00,
2013-05-15 00:12:00,68.0,67.0,30.13,North,10,0.0,-999.0,96,-99.99,,,-99.99,,2013-05-15 10:12:00,
2013-05-15 00:22:00,68.0,67.0,30.12,North,10,0.0,-999.0,96,-99.99,,,-99.99,,2013-05-15 10:22:00,
2013-05-15 00:32:00,68.0,67.0,30.12,North,10,0.0,-999.0,96,-99.99,,,-99.99,,2013-05-15 10:32:00,
2013-05-15 00:42:00,68.0,67.0,30.12,North,10,0.0,-999.0,96,-99.99,,,-99.99,,2013-05-15 10:42:00,
2013-05-15 00:52:00,68.0,67.0,30.12,North,10,0.0,-999.0,96,-99.99,,,-99.99,,2013-05-15 10:52:00,
2013-05-15 01:05:00,68.0,67.0,30.11,North,10,0.0,-999.0,96,-99.99,,,-99.99,,2013-05-15 11:05:00,
2013-05-15 01:13:00,68.0,67.0,30.11,North,10,0.0,-999.0,96,-99.99,,,-99.99,,2013-05-15 11:13:00,
2013-05-15 01:22:00,68.0,67.0,30.11,North,10,0.0,-999.0,96,-99.99,,,-99.99,,2013-05-15 11:22:00,
2013-05-15 01:33:00,68.0,67.0,30.10,North,10,0.0,-999.0,97,-99.99,,,-99.99,,2013-05-15 11:33:00,
2013-05-15 01:43:00,68.0,67.0,30.10,North,10,0.0,-999.0,97,-99.99,,,-99.99,,2013-05-15 11:43:00,
2013-05-15 01:53:00,68.0,67.0,30.10,North,10,0.0,-999.0,97,-99.99,,,-99.99,,2013-05-15 11:53:00,
2013-05-15 02:05:00,68.0,67.0,30.09,North,10,0.0,-999.0,97,-99.99,,,-99.99,,2013-05-15 12:05:00,
2013-05-15 02:22:00,68.0,67.0,30.09,North,10,0.0,-999.0,97,-99.99,,,-99.99,,2013-05-15 12:22:00,
2013-05-15 02:34:00,68.0,67.0,30.09,North,10,0.0,-999.0,97,-99.99,,,-99.99,,2013-05-15 12:34:00,
2013-05-15 02:53:00,68.0,67.0,30.09,North,10,0.0,-999.0,97,-99.99,,,-99.99,,2013-05-15 12:53:00,
2013-05-15 03:03:00,68.0,67.0,30.08,North,10,0.0,-999.0,97,-99.99,,,-99.99,,2013-05-15 13:03:00,
2013-05-15 03:12:00,68.0,67.0,30.08,North,10,0.0,-999.0,97,-99.99,,,-99.99,,2013-05-15 13:12:00,
2013-05-15 03:34:00,68.0,67.0,30.08,North,10,0.0,-999.0,97,-99.99,,,-99.99,,2013-05-15 13:34:00,
2013-05-15 03:43:00,68.0,67.0,30.08,North,10,0.0,-999.0,97,-99.99,,,-99.99,,2013-05-15 13:43:00,
2013-05-15 03:53:00,68.0,67.0,30.08,North,10,0.0,-999.0,97,-99.99,,,-99.99,,2013-05-15 13:53:00,
2013-05-15 04:02:00,68.0,67.0,30.07,North,10,0.0,-999.0,97,-99.99,,,-99.99,,2013-05-15 14:02:00,
2013-05-15 04:11:00,68.0,67.0,30.07,North,10,0.0,-999.0,97,-99.99,,,-99.99,,2013-05-15 14:11:00,
2013-05-15 04:22:00,67.0,66.0,30.08,North,10,0.0,-999.0,97,-99.99,,,-99.99,,2013-05-15 14:22:00,
2013-05-15 04:34:00,67.0,66.0,30.08,North,10,0.0,-999.0,97,-99.99,,,-99.99,,2013-05-15 14:34:00,
2013-05-15 04:42:00,67.0,66.0,30.08,North,10,0.0,-999.0,97,-99.99,,,-99.99,,2013-05-15 14:42:00,
2013-05-15 04:52:00,67.0,66.0,30.08,North,10,0.0,-999.0,97,-99.99,,,-99.99,,2013-05-15 14:52:00,
2013-05-15 05:04:00,67.0,66.0,30.09,North,10,0.0,-999.0,97,-99.99,,,-99.99,,2013-05-15 15:04:00,
2013-05-15 05:12:00,67.0,66.0,30.09,North,10,0.0,-999.0,97,-99.99,,,-99.99,,2013-05-15 15:12:00,
2013-05-15 05:23:00,67.0,66.0,30.09,North,10,0.0,-999.0,97,-99.99,,,-99.99,,2013-05-15 15:23:00,
2013-05-15 05:35:00,66.0,65.0,30.09,North,10,0.0,-999.0,97,-99.99,,,-99.99,,2013-05-15 15:35:00,
2013-05-15 05:43:00,66.0,65.0,30.09,North,10,0.0,-999.0,97,-99.99,,,-99.99,,2013-05-15 15:43:00,
2013-05-15 05:53:00,66.0,65.0,30.09,North,10,0.0,-999.0,97,-99.99,,,-99.99,,2013-05-15 15:53:00,
2013-05-15 06:04:00,65.0,64.0,30.09,North,10,0.0,-999.0,97,-99.99,,,-99.99,,2013-05-15 16:04:00,
2013-05-15 06:14:00,65.0,64.0,30.09,North,10,0.0,-999.0,97,-99.99,,,-99.99,,2013-05-15 16:14:00,
2013-05-15 06:24:00,65.0,64.0,30.09,North,10,0.0,-999.0,98,-99.99,,,-99.99,,2013-05-15 16:24:00,
2013-05-15 06:34:00,65.0,64.0,30.10,North,10,0.0,-999.0,98,-99.99,,,-99.99,,2013-05-15 16:34:00,
2013-05-15 06:43:00,65.0,64.0,30.10,North,10,0.0,-999.0,98,-99.99,,,-99.99,,2013-05-15 16:43:00,
2013-05-15 06:52:00,65.0,64.0,30.11,North,10,0.0,-999.0,98,-99.99,,,-99.99,,2013-05-15 16:52:00,
2013-05-15 07:12:00,66.0,65.0,30.11,North,10,0.0,-999.0,98,-99.99,,,-99.99,,2013-05-15 17:12:00,
2013-05-15 07:33:00,67.0,66.0,30.12,North,10,0.0,-999.0,98,-99.99,,,-99.99,,2013-05-15 17:33:00,
2013-05-15 07:53:00,68.0,67.0,30.13,North,10,0.0,-999.0,98,-99.99,,,-99.99,,2013-05-15 17:53:00,
2013-05-15 08:03:00,70.0,69.0,30.12,North,10,0.0,-999.0,98,-99.99,,,-99.99,,2013-05-15 18:03:00,
2013-05-15 08:11:00,70.0,69.0,30.12,North,10,0.0,-999.0,98,-99.99,,,-99.99,,2013-05-15 18:11:00,
2013-05-15 08:23:00,73.0,71.0,30.13,North,10,0.0,-999.0,93,-99.99,,,-99.99,,2013-05-15 18:23:00,
2013-05-15 08:35:00,74.0,71.0,30.14,North,10,0.0,-999.0,90,-99.99,,,-99.99,,2013-05-15 18:35:00,
2013-05-15 08:43:00,74.0,71.0,30.14,North,10,0.0,-999.0,90,-99.99,,,-99.99,,2013-05-15 18:43:00,
2013-05-15 08:53:00,74.0,69.0,30.14,North,10,0.0,-999.0,84,-99.99,,,-99.99,,2013-05-15 18:53:00,
2013-05-15 09:23:00,75.0,68.0,30.15,NNE,22,1.0,-999.0,80,-99.99,,,-99.99,,2013-05-15 19:23:00,
2013-05-15 09:34:00,76.0,70.0,30.15,North,355,1.0,-999.0,82,-99.99,,,-99.99,,2013-05-15 19:34:00,
2013-05-15 09:42:00,76.0,70.0,30.15,North,355,1.0,-999.0,82,-99.99,,,-99.99,,2013-05-15 19:42:00,
2013-05-15 09:53:00,77.0,70.0,30.15,ENE,61,1.0,-999.0,78,-99.99,,,-99.99,,2013-05-15 19:53:00,
2013-05-15 10:03:00,77.0,71.0,30.15,NW,306,0.0,-999.0,81,-99.99,,,-99.99,,2013-05-15 20:03:00,
2013-05-15 10:12:00,77.0,71.0,30.15,NW,306,0.0,-999.0,81,-99.99,,,-99.99,,2013-05-15 20:12:00,
2013-05-15 10:22:00,78.0,69.0,30.15,NE,38,0.0,-999.0,74,-99.99,,,-99.99,,2013-05-15 20:22:00,
2013-05-15 10:32:00,79.0,69.0,30.14,NNW,340,1.0,-999.0,71,-99.99,,,-99.99,,2013-05-15 20:32:00,
2013-05-15 10:43:00,79.0,69.0,30.14,NNW,340,1.0,-999.0,71,-99.99,,,-99.99,,2013-05-15 20:43:00,
2013-05-15 10:52:00,78.0,68.0,30.14,ENE,60,2.0,-999.0,71,-99.99,,,-99.99,,2013-05-15 20:52:00,
2013-05-15 11:03:00,78.0,68.0,30.14,ENE,70,1.0,-999.0,72,-99.99,,,-99.99,,2013-05-15 21:03:00,
2013-05-15 11:13:00,78.0,68.0,30.14,ENE,70,1.0,-999.0,72,-99.99,,,-99.99,,2013-05-15 21:13:00,
2013-05-15 11:24:00,76.0,69.0,30.14,ENE,66,3.0,-999.0,80,-99.99,,,-99.99,,2013-05-15 21:24:00,
2013-05-15 11:36:00,76.0,69.0,30.14,NNE,15,0.0,-999.0,78,-99.99,,,-99.99,,2013-05-15 21:36:00,
2013-05-15 11:44:00,76.0,69.0,30.14,NNE,15,0.0,-999.0,78,-99.99,,,-99.99,,2013-05-15 21:44:00,
2013-05-15 12:05:00,78.0,69.0,30.13,North,5,0.0,-999.0,74,-99.99,,,-99.99,,2013-05-15 22:05:00,
2013-05-15 12:15:00,78.0,69.0,30.13,North,5,0.0,-999.0,74,-99.99,,,-99.99,,2013-05-15 22:15:00,
2013-05-15 12:25:00,78.0,69.0,30.13,NNE,16,1.0,-999.0,75,-99.99,,,-99.99,,2013-05-15 22:25:00,
2013-05-15 12:34:00,78.0,70.0,30.12,North,9,2.0,-999.0,76,-99.99,,,-99.99,,2013-05-15 22:34:00,
2013-05-15 12:44:00,78.0,70.0,30.12,North,9,2.0,-999.0,76,-99.99,,,-99.99,,2013-05-15 22:44:00,
2013-05-15 12:53:00,78.0,69.0,30.12,ENE,69,3.0,-999.0,75,-99.99,,,-99.99,,2013-05-15 22:53:00,
2013-05-15 13:04:00,78.0,69.0,30.11,North,11,2.0,-999.0,75,-99.99,,,-99.99,,2013-05-15 23:04:00,
2013-05-15 13:12:00,78.0,69.0,30.11,North,11,2.0,-999.0,75,-99.99,,,-99.99,,2013-05-15 23:12:00,
2013-05-15 13:23:00,78.0,70.0,30.11,NE,40,4.0,-999.0,76,-99.99,,,-99.99,,2013-05-15 23:23:00,
2013-05-15 13:34:00,80.0,71.0,30.11,NW,313,2.0,-999.0,75,-99.99,,,-99.99,,2013-05-15 23:34:00,
2013-05-15 13:43:00,80.0,71.0,30.11,NW,313,2.0,-999.0,75,-99.99,,,-99.99,,2013-05-15 23:43:00,
2013-05-15 13:52:00,79.0,70.0,30.10,NE,55,3.0,-999.0,74,-99.99,,,-99.99,,2013-05-15 23:52:00,
2013-05-15 14:03:00,81.0,69.0,30.10,North,5,2.0,-999.0,67,-99.99,,,-99.99,,2013-05-16 00:03:00,
2013-05-15 14:13:00,81.0,69.0,30.10,North,5,2.0,-999.0,67,-99.99,,,-99.99,,2013-05-16 00:13:00,
2013-05-15 14:23:00,81.0,70.0,30.10,NNE,28,3.0,-999.0,70,-99.99,,,-99.99,,2013-05-16 00:23:00,
2013-05-15 14:34:00,81.0,69.0,30.10,North,10,3.0,-999.0,66,-99.99,,,-99.99,,2013-05-16 00:34:00,
2013-05-15 14:43:00,80.0,70.0,30.09,NE,46,3.0,-999.0,71,-99.99,,,-99.99,,2013-05-16 00:43:00,
2013-05-15 14:52:00,80.0,70.0,30.09,NE,46,3.0,-999.0,71,-99.99,,,-99.99,,2013-05-16 00:52:00,
2013-05-15 15:04:00,79.0,68.0,30.09,NNE,19,2.0,-999.0,69,-99.99,,,-99.99,,2013-05-16 01:04:00,
2013-05-15 15:12:00,79.0,68.0,30.09,NNE,23,3.0,-999.0,70,-99.99,,,-99.99,,2013-05-16 01:12:00,
2013-05-15 15:34:00,80.0,68.0,30.09,North,355,3.0,-999.0,68,-99.99,,,-99.99,,2013-05-16 01:34:00,
2013-05-15 15:43:00,80.0,68.0,30.09,North,355,3.0,-999.0,68,-99.99,,,-99.99,,2013-05-16 01:43:00,
2013-05-15 15:53:00,80.0,68.0,30.09,NNE,31,2.0,-999.0,67,-99.99,,,-99.99,,2013-05-16 01:53:00,
2013-05-15 16:03:00,79.0,68.0,30.09,North,355,3.0,-999.0,68,-99.99,,,-99.99,,2013-05-16 02:03:00,
2013-05-15 16:12:00,79.0,68.0,30.09,North,355,3.0,-999.0,68,-99.99,,,-99.99,,2013-05-16 02:12:00,
2013-05-15 16:24:00,78.0,67.0,30.08,NNW,327,2.0,-999.0,69,-99.99,,,-99.99,,2013-05-16 02:24:00,
2013-05-15 16:35:00,78.0,68.0,30.08,NE,53,2.0,-999.0,71,-99.99,,,-99.99,,2013-05-16 02:35:00,
2013-05-15 16:42:00,78.0,68.0,30.08,NE,53,2.0,-999.0,71,-99.99,,,-99.99,,2013-05-16 02:42:00,
2013-05-15 16:51:00,78.0,68.0,30.08,NE,53,2.0,-999.0,71,-99.99,,,-99.99,,2013-05-16 02:51:00,
2013-05-15 17:02:00,74.0,68.0,30.10,North,355,4.0,-999.0,83,-99.99,,,-99.99,,2013-05-16 03:02:00,
2013-05-15 17:23:00,71.0,68.0,30.10,ENE,57,3.0,-999.0,91,-99.99,,,-99.99,,2013-05-16 03:23:00,
2013-05-15 17:33:00,70.0,68.0,30.10,NNE,28,0.0,-999.0,93,-99.99,,,-99.99,,2013-05-16 03:33:00,
2013-05-15 17:43:00,70.0,68.0,30.10,NNE,28,0.0,-999.0,93,-99.99,,,-99.99,,2013-05-16 03:43:00,
2013-05-15 17:54:00,70.0,68.0,30.11,NNE,28,0.0,-999.0,94,-99.99,,,-99.99,,2013-05-16 03:54:00,
2013-05-15 18:02:00,70.0,68.0,30.11,NNE,28,0.0,-999.0,94,-99.99,,,-99.99,,2013-05-16 04:02:00,
2013-05-15 18:12:00,70.0,68.0,30.11,NNE,28,0.0,-999.0,94,-99.99,,,-99.99,,2013-05-16 04:12:00,
2013-05-15 18:22:00,70.0,68.0,30.11,NNE,28,0.0,-999.0,94,-99.99,,,-99.99,,2013-05-16 04:22:00,
2013-05-15 18:33:00,70.0,68.0,30.12,NNE,28,0.0,-999.0,95,-99.99,,,-99.99,,2013-05-16 04:33:00,
2013-05-15 18:42:00,70.0,68.0,30.12,NNE,28,0.0,-999.0,95,-99.99,,,-99.99,,2013-05-16 04:42:00,
2013-05-15 18:52:00,70.0,68.0,30.12,NNE,28,0.0,-999.0,95,-99.99,,,-99.99,,2013-05-16 04:52:00,
2013-05-15 19:02:00,70.0,68.0,30.12,NNE,28,0.0,-999.0,95,-99.99,,,-99.99,,2013-05-16 05:02:00,
2013-05-15 19:12:00,70.0,68.0,30.12,NNE,28,0.0,-999.0,95,-99.99,,,-99.99,,2013-05-16 05:12:00,
2013-05-15 19:22:00,70.0,68.0,30.13,NNE,28,0.0,-999.0,95,-99.99,,,-99.99,,2013-05-16 05:22:00,
2013-05-15 19:32:00,70.0,68.0,30.13,NNE,28,0.0,-999.0,95,-99.99,,,-99.99,,2013-05-16 05:32:00,
2013-05-15 19:42:00,70.0,68.0,30.13,NNE,28,0.0,-999.0,95,-99.99,,,-99.99,,2013-05-16 05:42:00,
2013-05-15 19:52:00,70.0,68.0,30.14,NNE,28,0.0,-999.0,95,-99.99,,,-99.99,,2013-05-16 05:52:00,
2013-05-15 20:01:00,70.0,69.0,30.14,NNE,28,0.0,-999.0,96,-99.99,,,-99.99,,2013-05-16 06:01:00,
2013-05-15 20:12:00,70.0,69.0,30.14,NNE,28,0.0,-999.0,96,-99.99,,,-99.99,,2013-05-16 06:12:00,
2013-05-15 20:22:00,69.0,68.0,30.14,NNE,28,0.0,-999.0,96,-99.99,,,-99.99,,2013-05-16 06:22:00,
2013-05-15 20:33:00,69.0,68.0,30.14,NNE,28,0.0,-999.0,96,-99.99,,,-99.99,,2013-05-16 06:33:00,
2013-05-15 20:42:00,69.0,68.0,30.14,NNE,28,0.0,-999.0,96,-99.99,,,-99.99,,2013-05-16 06:42:00,
2013-05-15 20:52:00,69.0,68.0,30.15,NNE,28,0.0,-999.0,96,-99.99,,,-99.99,,2013-05-16 06:52:00,
2013-05-15 21:02:00,69.0,68.0,30.15,NNE,28,0.0,-999.0,96,-99.99,,,-99.99,,2013-05-16 07:02:00,
2013-05-15 21:12:00,69.0,68.0,30.15,NNE,28,0.0,-999.0,96,-99.99,,,-99.99,,2013-05-16 07:12:00,
2013-05-15 21:24:00,69.0,68.0,30.15,NNE,28,0.0,-999.0,96,-99.99,,,-99.99,,2013-05-16 07:24:00,
2013-05-15 21:34:00,68.0,67.0,30.15,NNE,28,0.0,-999.0,96,-99.99,,,-99.99,,2013-05-16 07:34:00,
2013-05-15 21:44:00,68.0,67.0,30.15,NNE,28,0.0,-999.0,96,-99.99,,,-99.99,,2013-05-16 07:44:00,
2013-05-15 21:54:00,68.0,67.0,30.16,NNE,28,0.0,-999.0,96,-99.99,,,-99.99,,2013-05-16 07:54:00,
2013-05-15 22:03:00,67.0,66.0,30.16,NNE,28,0.0,-999.0,96,-99.99,,,-99.99,,2013-05-16 08:03:00,
2013-05-15 22:13:00,67.0,66.0,30.16,NNE,28,0.0,-999.0,96,-99.99,,,-99.99,,2013-05-16 08:13:00,
2013-05-15 22:23:00,67.0,66.0,30.16,NNE,28,0.0,-999.0,96,-99.99,,,-99.99,,2013-05-16 08:23:00,
2013-05-15 22:34:00,67.0,66.0,30.16,NNE,28,0.0,-999.0,97,-99.99,,,-99.99,,2013-05-16 08:34:00,
2013-05-15 22:44:00,67.0,66.0,30.16,NNE,28,0.0,-999.0,97,-99.99,,,-99.99,,2013-05-16 08:44:00,
2013-05-15 22:54:00,67.0,66.0,30.16,NNE,28,0.0,-999.0,97,-99.99,,,-99.99,,2013-05-16 08:54:00,
2013-05-15 23:04:00,66.0,65.0,30.17,NNE,28,0.0,-999.0,97,-99.99,,,-99.99,,2013-05-16 09:04:00,
2013-05-15 23:14:00,67.0,66.0,30.16,NNE,28,0.0,-999.0,97,-99.99,,,-99.99,,2013-05-16 09:14:00,
2013-05-15 23:23:00,67.0,66.0,30.16,NNE,28,0.0,-999.0,97,-99.99,,,-99.99,,2013-05-16 09:23:00,
2013-05-15 23:35:00,67.0,66.0,30.16,NNE,28,0.0,-999.0,97,-99.99,,,-99.99,,2013-05-16 09:35:00,
2013-05-15 23:45:00,67.0,66.0,30.16,NNE,28,0.0,-999.0,97,-99.99,,,-99.99,,2013-05-16 09:45:00,
2013-05-15 23:55:00,67.0,66.0,30.16,NNE,28,0.0,-999.0,98,-99.99,,,-99.99,,2013-05-16 09:55:00,